SAS225 ENEV-LPPT
Flight info
| Callsign | SAS225 |
|---|---|
| Flight time | N/A |
| Altitude | 34000 |
| Route | GEPTU DCT EMKIN DCT VAKOL DCT IPNIK DCT AMKUX DCT BEREP DCT BUDON/N0453F360 DCT MADAD DCT BELOX DCT PENWU DCT TALIG/N0456F370 DCT TURDO DCT SOSOV DCT RIMTU DCT ABUPI DCT INBOM |
| Aircraft | A320/M-SDE3FGHIRWY/LB1 |
Departure
| Time | 2026-05-01 12:32 |
|---|---|
| Airport | Harstad/Narvik Airport (ENEV) |
Arrival
| Time | N/A |
|---|---|
| Airport | Lisbon Humberto Delgado Airport (LPPT) |
| Time | Latitude | Longitude | Altitude | Speed | Heading |
|---|---|---|---|---|---|
| 2026-05-01 12:05 | 68.48976 | 16.68636 | 92 ft | 0 kts | 359° |
| 2026-05-01 12:23 | 68.48962 | 16.68636 | 92 ft | 4 kts | 359° |
| 2026-05-01 12:23 | 68.48935 | 16.68638 | 92 ft | 4 kts | 359° |
| 2026-05-01 12:23 | 68.48908 | 16.68639 | 93 ft | 4 kts | 359° |
| 2026-05-01 12:24 | 68.48887 | 16.68640 | 92 ft | 0 kts | 359° |
| 2026-05-01 12:27 | 68.48893 | 16.68625 | 94 ft | 3 kts | 314° |
| 2026-05-01 12:27 | 68.48890 | 16.68274 | 91 ft | 12 kts | 271° |
| 2026-05-01 12:28 | 68.49040 | 16.68203 | 89 ft | 13 kts | 357° |
| 2026-05-01 12:28 | 68.49134 | 16.68190 | 89 ft | 14 kts | 357° |
| 2026-05-01 12:28 | 68.49354 | 16.68167 | 85 ft | 19 kts | 358° |
| 2026-05-01 12:29 | 68.49501 | 16.68153 | 75 ft | 23 kts | 358° |
| 2026-05-01 12:29 | 68.49673 | 16.68126 | 68 ft | 26 kts | 358° |
| 2026-05-01 12:29 | 68.50054 | 16.68083 | 73 ft | 28 kts | 358° |
| 2026-05-01 12:30 | 68.50356 | 16.68029 | 86 ft | 11 kts | 331° |
| 2026-05-01 12:30 | 68.50386 | 16.67879 | 92 ft | 8 kts | 270° |
| 2026-05-01 12:30 | 68.50380 | 16.67777 | 93 ft | 3 kts | 257° |
| 2026-05-01 12:31 | 68.50373 | 16.67726 | 93 ft | 4 kts | 245° |
| 2026-05-01 12:31 | 68.50335 | 16.67690 | 93 ft | 10 kts | 176° |
| 2026-05-01 12:31 | 68.50330 | 16.67692 | 95 ft | 0 kts | 175° |
| 2026-05-01 12:32 | 68.50097 | 16.67719 | 88 ft | 74 kts | 178° |
| 2026-05-01 12:32 | 68.48287 | 16.67924 | 353 ft | 160 kts | 182° |
| 2026-05-01 12:32 | 68.47180 | 16.68026 | 1131 ft | 160 kts | 185° |
| 2026-05-01 12:33 | 68.46063 | 16.68155 | 1626 ft | 168 kts | 184° |
| 2026-05-01 12:33 | 68.44829 | 16.68258 | 1855 ft | 186 kts | 185° |
| 2026-05-01 12:33 | 68.43541 | 16.67710 | 2139 ft | 191 kts | 214° |
| 2026-05-01 12:33 | 68.42695 | 16.64916 | 2384 ft | 205 kts | 252° |
| 2026-05-01 12:34 | 68.42645 | 16.60866 | 2674 ft | 228 kts | 277° |
| 2026-05-01 12:34 | 68.42813 | 16.56545 | 3325 ft | 233 kts | 265° |
| 2026-05-01 12:34 | 68.42494 | 16.52240 | 4099 ft | 233 kts | 249° |
| 2026-05-01 12:34 | 68.41939 | 16.48084 | 4930 ft | 234 kts | 251° |
| 2026-05-01 12:35 | 68.41423 | 16.43919 | 5830 ft | 231 kts | 251° |
| 2026-05-01 12:35 | 68.40921 | 16.39774 | 6655 ft | 232 kts | 251° |
| 2026-05-01 12:35 | 68.40375 | 16.35660 | 7411 ft | 232 kts | 244° |
| 2026-05-01 12:35 | 68.39458 | 16.32046 | 8160 ft | 235 kts | 229° |
| 2026-05-01 12:36 | 68.38249 | 16.29092 | 8898 ft | 237 kts | 225° |
| 2026-05-01 12:36 | 68.37007 | 16.26144 | 9642 ft | 238 kts | 225° |
| 2026-05-01 12:36 | 68.35746 | 16.23153 | 10122 ft | 248 kts | 225° |
| 2026-05-01 12:36 | 68.34390 | 16.19930 | 10258 ft | 269 kts | 225° |
| 2026-05-01 12:37 | 68.32933 | 16.16465 | 10386 ft | 289 kts | 225° |
| 2026-05-01 12:37 | 68.31374 | 16.12763 | 10517 ft | 307 kts | 225° |
| 2026-05-01 12:37 | 68.29708 | 16.08890 | 10685 ft | 323 kts | 223° |
| 2026-05-01 12:37 | 68.27924 | 16.05078 | 11147 ft | 330 kts | 221° |
| 2026-05-01 12:38 | 68.26080 | 16.01333 | 11691 ft | 333 kts | 221° |
| 2026-05-01 12:38 | 68.24205 | 15.97599 | 12232 ft | 337 kts | 221° |
| 2026-05-01 12:38 | 68.22309 | 15.93830 | 12787 ft | 340 kts | 221° |
| 2026-05-01 12:38 | 68.20397 | 15.90008 | 13323 ft | 343 kts | 221° |
| 2026-05-01 12:39 | 68.18473 | 15.86138 | 13825 ft | 348 kts | 221° |
| 2026-05-01 12:39 | 68.16533 | 15.82227 | 14358 ft | 350 kts | 222° |
| 2026-05-01 12:39 | 68.14576 | 15.78277 | 14918 ft | 353 kts | 222° |
| 2026-05-01 12:39 | 68.12602 | 15.74293 | 15500 ft | 356 kts | 222° |
| 2026-05-01 12:40 | 68.10488 | 15.70715 | 16004 ft | 365 kts | 213° |
| 2026-05-01 12:40 | 68.08142 | 15.67947 | 16485 ft | 371 kts | 210° |
| 2026-05-01 12:40 | 68.05757 | 15.65225 | 16980 ft | 374 kts | 210° |
| 2026-05-01 12:40 | 68.03354 | 15.62481 | 17468 ft | 377 kts | 211° |
| 2026-05-01 12:41 | 68.00933 | 15.59718 | 17920 ft | 380 kts | 211° |
| 2026-05-01 12:41 | 67.98484 | 15.56929 | 18338 ft | 384 kts | 211° |
| 2026-05-01 12:41 | 67.96021 | 15.54135 | 18740 ft | 386 kts | 211° |
| 2026-05-01 12:41 | 67.93543 | 15.51333 | 19156 ft | 388 kts | 211° |
| 2026-05-01 12:42 | 67.91047 | 15.48509 | 19629 ft | 391 kts | 211° |
| 2026-05-01 12:42 | 67.88537 | 15.45669 | 20026 ft | 393 kts | 211° |
| 2026-05-01 12:42 | 67.86010 | 15.42818 | 20435 ft | 396 kts | 211° |
| 2026-05-01 12:42 | 67.83497 | 15.39992 | 20839 ft | 397 kts | 211° |
| 2026-05-01 12:43 | 67.80972 | 15.37067 | 21183 ft | 395 kts | 214° |
| 2026-05-01 12:43 | 67.78637 | 15.33323 | 21490 ft | 389 kts | 224° |
| 2026-05-01 12:43 | 67.76588 | 15.28751 | 21820 ft | 385 kts | 229° |
| 2026-05-01 12:43 | 67.74591 | 15.23999 | 22158 ft | 387 kts | 229° |
| 2026-05-01 12:44 | 67.72581 | 15.19253 | 22495 ft | 389 kts | 228° |
| 2026-05-01 12:44 | 67.70554 | 15.14496 | 22824 ft | 391 kts | 228° |
| 2026-05-01 12:44 | 67.66482 | 15.05002 | 23614 ft | 390 kts | 228° |
| 2026-05-01 12:45 | 67.62435 | 14.95617 | 24414 ft | 386 kts | 228° |
| 2026-05-01 12:45 | 67.60425 | 14.90965 | 24836 ft | 384 kts | 228° |
| 2026-05-01 12:45 | 67.58425 | 14.86337 | 25272 ft | 383 kts | 228° |
| 2026-05-01 12:46 | 67.56436 | 14.81737 | 25713 ft | 381 kts | 228° |
| 2026-05-01 12:46 | 67.54453 | 14.77158 | 26132 ft | 379 kts | 229° |
| 2026-05-01 12:46 | 67.52479 | 14.72615 | 26553 ft | 377 kts | 228° |
| 2026-05-01 12:46 | 67.50515 | 14.68107 | 26990 ft | 375 kts | 229° |
| 2026-05-01 12:47 | 67.48553 | 14.63614 | 27416 ft | 374 kts | 228° |
| 2026-05-01 12:47 | 67.46600 | 14.59148 | 27846 ft | 372 kts | 229° |
| 2026-05-01 12:47 | 67.44654 | 14.54707 | 28284 ft | 370 kts | 229° |
| 2026-05-01 12:47 | 67.42715 | 14.50302 | 28714 ft | 369 kts | 229° |
| 2026-05-01 12:48 | 67.40785 | 14.45927 | 29148 ft | 367 kts | 229° |
| 2026-05-01 12:48 | 67.38885 | 14.41629 | 29578 ft | 365 kts | 229° |
| 2026-05-01 12:48 | 67.36971 | 14.37317 | 30022 ft | 364 kts | 228° |
| 2026-05-01 12:48 | 67.35061 | 14.33029 | 30379 ft | 363 kts | 228° |
| 2026-05-01 12:49 | 67.33154 | 14.28746 | 30680 ft | 363 kts | 228° |
| 2026-05-01 12:49 | 67.31246 | 14.24465 | 30965 ft | 363 kts | 228° |
| 2026-05-01 12:49 | 67.29337 | 14.20181 | 31287 ft | 363 kts | 228° |
| 2026-05-01 12:49 | 67.28046 | 14.17290 | 31501 ft | 364 kts | 228° |
| 2026-05-01 12:50 | 67.26127 | 14.13003 | 31804 ft | 364 kts | 228° |
| 2026-05-01 12:50 | 67.24207 | 14.08733 | 32099 ft | 364 kts | 228° |
| 2026-05-01 12:50 | 67.22285 | 14.04478 | 32388 ft | 365 kts | 227° |
| 2026-05-01 12:50 | 67.20355 | 14.00221 | 32679 ft | 365 kts | 227° |
| 2026-05-01 12:51 | 67.18424 | 13.95969 | 32964 ft | 365 kts | 227° |
| 2026-05-01 12:51 | 67.16494 | 13.91719 | 33244 ft | 366 kts | 227° |
| 2026-05-01 12:51 | 67.12625 | 13.83204 | 33783 ft | 366 kts | 227° |
| 2026-05-01 12:52 | 67.10689 | 13.78953 | 34018 ft | 366 kts | 227° |
| 2026-05-01 12:52 | 67.06805 | 13.70476 | 34405 ft | 367 kts | 227° |
| 2026-05-01 12:52 | 67.04856 | 13.66237 | 34575 ft | 368 kts | 227° |
| 2026-05-01 12:53 | 67.00947 | 13.57750 | 34927 ft | 369 kts | 226° |
| 2026-05-01 12:53 | 66.98987 | 13.53505 | 35094 ft | 370 kts | 226° |
| 2026-05-01 12:53 | 66.97024 | 13.49265 | 35257 ft | 370 kts | 226° |
| 2026-05-01 12:54 | 66.95055 | 13.45021 | 35425 ft | 371 kts | 226° |
| 2026-05-01 12:54 | 66.91099 | 13.36538 | 35749 ft | 372 kts | 226° |
| 2026-05-01 12:54 | 66.89113 | 13.32297 | 35907 ft | 372 kts | 226° |
| 2026-05-01 12:55 | 66.85797 | 13.25219 | 35952 ft | 375 kts | 226° |